sensor_id;sensor_type;location;lat;lon;timestamp;P1;durP1;ratioP1;P2;durP2;ratioP2
21022;SDS011;10669;51.076;3.714;2022-08-03T00:01:22;5.47;;;2.10;;
21022;SDS011;10669;51.076;3.714;2022-08-03T00:03:48;13.52;;;2.33;;
21022;SDS011;10669;51.076;3.714;2022-08-03T00:06:15;7.00;;;2.22;;
21022;SDS011;10669;51.076;3.714;2022-08-03T00:08:41;5.97;;;2.22;;
21022;SDS011;10669;51.076;3.714;2022-08-03T00:11:06;6.43;;;1.95;;
21022;SDS011;10669;51.076;3.714;2022-08-03T00:13:33;7.82;;;2.47;;
21022;SDS011;10669;51.076;3.714;2022-08-03T00:16:00;9.98;;;2.47;;
21022;SDS011;10669;51.076;3.714;2022-08-03T00:18:26;7.15;;;2.20;;
21022;SDS011;10669;51.076;3.714;2022-08-03T00:20:52;8.90;;;2.22;;
21022;SDS011;10669;51.076;3.714;2022-08-03T00:23:18;9.73;;;2.55;;
21022;SDS011;10669;51.076;3.714;2022-08-03T00:25:43;7.35;;;2.45;;
21022;SDS011;10669;51.076;3.714;2022-08-03T00:28:10;7.63;;;2.22;;
21022;SDS011;10669;51.076;3.714;2022-08-03T00:30:37;10.75;;;2.20;;
21022;SDS011;10669;51.076;3.714;2022-08-03T00:33:02;5.90;;;1.80;;
21022;SDS011;10669;51.076;3.714;2022-08-03T00:35:28;7.70;;;2.00;;
21022;SDS011;10669;51.076;3.714;2022-08-03T00:37:55;6.15;;;1.95;;
21022;SDS011;10669;51.076;3.714;2022-08-03T00:40:22;8.13;;;1.98;;
21022;SDS011;10669;51.076;3.714;2022-08-03T00:42:50;10.13;;;1.73;;
21022;SDS011;10669;51.076;3.714;2022-08-03T00:45:22;9.52;;;1.85;;
21022;SDS011;10669;51.076;3.714;2022-08-03T00:47:56;8.95;;;1.65;;
21022;SDS011;10669;51.076;3.714;2022-08-03T00:50:23;12.45;;;2.08;;
21022;SDS011;10669;51.076;3.714;2022-08-03T00:52:56;9.18;;;2.00;;
21022;SDS011;10669;51.076;3.714;2022-08-03T00:55:25;8.25;;;1.95;;
21022;SDS011;10669;51.076;3.714;2022-08-03T00:57:51;6.57;;;2.13;;
21022;SDS011;10669;51.076;3.714;2022-08-03T01:00:18;8.70;;;1.75;;
21022;SDS011;10669;51.076;3.714;2022-08-03T01:02:47;5.50;;;2.05;;
21022;SDS011;10669;51.076;3.714;2022-08-03T01:11:05;9.20;;;1.77;;
21022;SDS011;10669;51.076;3.714;2022-08-03T01:13:48;12.35;;;2.25;;
21022;SDS011;10669;51.076;3.714;2022-08-03T01:19:07;7.93;;;2.10;;
21022;SDS011;10669;51.076;3.714;2022-08-03T01:30:38;9.18;;;2.28;;
21022;SDS011;10669;51.076;3.714;2022-08-03T01:33:09;6.38;;;2.33;;
21022;SDS011;10669;51.076;3.714;2022-08-03T01:35:44;6.68;;;1.60;;
21022;SDS011;10669;51.076;3.714;2022-08-03T01:38:33;7.95;;;1.70;;
21022;SDS011;10669;51.076;3.714;2022-08-03T01:41:09;9.05;;;2.20;;
21022;SDS011;10669;51.076;3.714;2022-08-03T01:43:40;6.05;;;1.60;;
21022;SDS011;10669;51.076;3.714;2022-08-03T01:46:10;6.85;;;1.63;;
21022;SDS011;10669;51.076;3.714;2022-08-03T01:48:36;6.43;;;1.65;;
21022;SDS011;10669;51.076;3.714;2022-08-03T01:51:06;5.20;;;2.10;;
21022;SDS011;10669;51.076;3.714;2022-08-03T01:53:34;8.52;;;2.17;;
21022;SDS011;10669;51.076;3.714;2022-08-03T01:56:03;10.07;;;2.40;;
21022;SDS011;10669;51.076;3.714;2022-08-03T01:58:33;5.13;;;1.40;;
21022;SDS011;10669;51.076;3.714;2022-08-03T02:01:02;8.43;;;1.75;;
21022;SDS011;10669;51.076;3.714;2022-08-03T02:03:28;5.00;;;1.70;;
21022;SDS011;10669;51.076;3.714;2022-08-03T02:05:58;2.10;;;1.35;;
21022;SDS011;10669;51.076;3.714;2022-08-03T02:08:28;7.88;;;2.00;;
21022;SDS011;10669;51.076;3.714;2022-08-03T02:10:56;8.57;;;1.67;;
21022;SDS011;10669;51.076;3.714;2022-08-03T02:13:23;7.68;;;1.65;;
21022;SDS011;10669;51.076;3.714;2022-08-03T02:15:50;4.85;;;1.73;;
21022;SDS011;10669;51.076;3.714;2022-08-03T02:18:18;8.27;;;1.60;;
21022;SDS011;10669;51.076;3.714;2022-08-03T02:20:47;13.30;;;2.13;;
21022;SDS011;10669;51.076;3.714;2022-08-03T02:23:15;5.05;;;1.63;;
21022;SDS011;10669;51.076;3.714;2022-08-03T02:25:43;6.72;;;1.50;;
21022;SDS011;10669;51.076;3.714;2022-08-03T02:28:17;5.97;;;1.48;;
21022;SDS011;10669;51.076;3.714;2022-08-03T02:30:49;5.13;;;1.77;;
21022;SDS011;10669;51.076;3.714;2022-08-03T02:33:41;7.90;;;1.90;;
21022;SDS011;10669;51.076;3.714;2022-08-03T02:36:08;8.93;;;2.10;;
21022;SDS011;10669;51.076;3.714;2022-08-03T02:38:37;4.38;;;1.67;;
21022;SDS011;10669;51.076;3.714;2022-08-03T02:41:12;7.25;;;1.50;;
21022;SDS011;10669;51.076;3.714;2022-08-03T02:43:44;4.72;;;1.65;;
21022;SDS011;10669;51.076;3.714;2022-08-03T02:46:16;7.38;;;2.40;;
21022;SDS011;10669;51.076;3.714;2022-08-03T02:48:43;4.53;;;2.47;;
21022;SDS011;10669;51.076;3.714;2022-08-03T02:51:11;6.20;;;1.58;;
21022;SDS011;10669;51.076;3.714;2022-08-03T02:53:39;6.22;;;2.15;;
21022;SDS011;10669;51.076;3.714;2022-08-03T02:56:08;6.00;;;2.65;;
21022;SDS011;10669;51.076;3.714;2022-08-03T03:01:06;9.10;;;2.25;;
21022;SDS011;10669;51.076;3.714;2022-08-03T03:06:02;10.45;;;2.33;;
21022;SDS011;10669;51.076;3.714;2022-08-03T03:08:29;7.65;;;2.00;;
21022;SDS011;10669;51.076;3.714;2022-08-03T03:10:56;8.93;;;3.15;;
21022;SDS011;10669;51.076;3.714;2022-08-03T03:13:26;8.20;;;2.10;;
21022;SDS011;10669;51.076;3.714;2022-08-03T03:15:55;8.25;;;2.20;;
21022;SDS011;10669;51.076;3.714;2022-08-03T03:18:27;9.23;;;1.90;;
21022;SDS011;10669;51.076;3.714;2022-08-03T03:20:55;4.18;;;1.75;;
21022;SDS011;10669;51.076;3.714;2022-08-03T03:23:21;7.57;;;2.03;;
21022;SDS011;10669;51.076;3.714;2022-08-03T03:25:52;9.45;;;2.13;;
21022;SDS011;10669;51.076;3.714;2022-08-03T03:28:24;10.93;;;1.83;;
21022;SDS011;10669;51.076;3.714;2022-08-03T03:30:52;8.25;;;1.75;;
21022;SDS011;10669;51.076;3.714;2022-08-03T03:33:18;11.60;;;2.30;;
21022;SDS011;10669;51.076;3.714;2022-08-03T03:35:44;8.18;;;2.10;;
21022;SDS011;10669;51.076;3.714;2022-08-03T03:38:12;4.75;;;2.03;;
21022;SDS011;10669;51.076;3.714;2022-08-03T03:40:39;8.27;;;2.20;;
21022;SDS011;10669;51.076;3.714;2022-08-03T03:43:09;5.03;;;1.80;;
21022;SDS011;10669;51.076;3.714;2022-08-03T03:45:36;10.90;;;2.35;;
21022;SDS011;10669;51.076;3.714;2022-08-03T03:48:04;7.35;;;2.47;;
21022;SDS011;10669;51.076;3.714;2022-08-03T03:50:31;7.03;;;2.35;;
21022;SDS011;10669;51.076;3.714;2022-08-03T03:52:57;11.57;;;2.05;;
21022;SDS011;10669;51.076;3.714;2022-08-03T03:55:23;9.43;;;2.63;;
21022;SDS011;10669;51.076;3.714;2022-08-03T03:57:50;9.63;;;1.88;;
21022;SDS011;10669;51.076;3.714;2022-08-03T04:00:16;7.00;;;2.17;;
21022;SDS011;10669;51.076;3.714;2022-08-03T04:02:43;15.37;;;2.77;;
21022;SDS011;10669;51.076;3.714;2022-08-03T04:05:10;11.55;;;2.47;;
21022;SDS011;10669;51.076;3.714;2022-08-03T04:07:59;10.57;;;2.53;;
21022;SDS011;10669;51.076;3.714;2022-08-03T04:10:58;10.05;;;2.30;;
21022;SDS011;10669;51.076;3.714;2022-08-03T04:13:38;6.40;;;2.30;;
21022;SDS011;10669;51.076;3.714;2022-08-03T04:16:08;10.43;;;2.47;;
21022;SDS011;10669;51.076;3.714;2022-08-03T04:18:37;10.20;;;2.43;;
21022;SDS011;10669;51.076;3.714;2022-08-03T04:21:08;8.10;;;2.30;;
21022;SDS011;10669;51.076;3.714;2022-08-03T04:23:36;8.93;;;2.40;;
21022;SDS011;10669;51.076;3.714;2022-08-03T04:26:06;7.20;;;2.33;;
21022;SDS011;10669;51.076;3.714;2022-08-03T04:28:38;7.47;;;2.20;;
21022;SDS011;10669;51.076;3.714;2022-08-03T04:31:09;9.40;;;2.97;;
21022;SDS011;10669;51.076;3.714;2022-08-03T04:36:04;9.03;;;2.87;;
21022;SDS011;10669;51.076;3.714;2022-08-03T04:38:36;12.33;;;2.73;;
21022;SDS011;10669;51.076;3.714;2022-08-03T04:41:07;9.47;;;2.80;;
21022;SDS011;10669;51.076;3.714;2022-08-03T04:43:35;8.13;;;2.42;;
21022;SDS011;10669;51.076;3.714;2022-08-03T04:46:05;10.63;;;2.88;;
21022;SDS011;10669;51.076;3.714;2022-08-03T04:48:32;11.87;;;2.50;;
21022;SDS011;10669;51.076;3.714;2022-08-03T04:51:00;8.50;;;2.80;;
21022;SDS011;10669;51.076;3.714;2022-08-03T04:53:29;8.13;;;2.60;;
21022;SDS011;10669;51.076;3.714;2022-08-03T04:56:02;9.93;;;2.45;;
21022;SDS011;10669;51.076;3.714;2022-08-03T04:58:31;7.03;;;2.75;;
21022;SDS011;10669;51.076;3.714;2022-08-03T05:00:57;11.10;;;3.10;;
21022;SDS011;10669;51.076;3.714;2022-08-03T05:03:23;16.40;;;3.25;;
21022;SDS011;10669;51.076;3.714;2022-08-03T05:05:51;12.55;;;3.90;;
21022;SDS011;10669;51.076;3.714;2022-08-03T05:08:17;10.48;;;3.20;;
21022;SDS011;10669;51.076;3.714;2022-08-03T05:10:43;13.95;;;3.72;;
21022;SDS011;10669;51.076;3.714;2022-08-03T05:13:11;7.70;;;3.20;;
21022;SDS011;10669;51.076;3.714;2022-08-03T05:15:39;11.65;;;3.30;;
21022;SDS011;10669;51.076;3.714;2022-08-03T05:18:07;12.20;;;3.22;;
21022;SDS011;10669;51.076;3.714;2022-08-03T05:20:34;10.77;;;2.95;;
21022;SDS011;10669;51.076;3.714;2022-08-03T05:23:02;13.43;;;3.22;;
21022;SDS011;10669;51.076;3.714;2022-08-03T05:25:29;7.95;;;2.47;;
21022;SDS011;10669;51.076;3.714;2022-08-03T05:27:56;10.10;;;2.40;;
21022;SDS011;10669;51.076;3.714;2022-08-03T05:30:24;12.38;;;3.30;;
21022;SDS011;10669;51.076;3.714;2022-08-03T05:32:53;7.05;;;2.67;;
21022;SDS011;10669;51.076;3.714;2022-08-03T05:35:19;7.88;;;3.03;;
21022;SDS011;10669;51.076;3.714;2022-08-03T05:37:47;7.75;;;2.45;;
21022;SDS011;10669;51.076;3.714;2022-08-03T05:40:13;7.07;;;2.72;;
21022;SDS011;10669;51.076;3.714;2022-08-03T05:42:39;12.00;;;3.63;;
21022;SDS011;10669;51.076;3.714;2022-08-03T05:45:05;18.40;;;2.72;;
21022;SDS011;10669;51.076;3.714;2022-08-03T05:47:43;8.20;;;2.90;;
21022;SDS011;10669;51.076;3.714;2022-08-03T05:50:12;13.40;;;3.00;;
21022;SDS011;10669;51.076;3.714;2022-08-03T05:52:40;9.57;;;2.72;;
21022;SDS011;10669;51.076;3.714;2022-08-03T05:55:07;7.80;;;2.63;;
21022;SDS011;10669;51.076;3.714;2022-08-03T05:57:36;12.30;;;3.35;;
21022;SDS011;10669;51.076;3.714;2022-08-03T06:00:06;7.13;;;2.30;;
21022;SDS011;10669;51.076;3.714;2022-08-03T06:02:36;8.00;;;3.35;;
21022;SDS011;10669;51.076;3.714;2022-08-03T06:05:03;7.43;;;2.90;;
21022;SDS011;10669;51.076;3.714;2022-08-03T06:07:30;12.05;;;2.70;;
21022;SDS011;10669;51.076;3.714;2022-08-03T06:09:56;11.35;;;3.13;;
21022;SDS011;10669;51.076;3.714;2022-08-03T06:12:23;16.15;;;3.35;;
21022;SDS011;10669;51.076;3.714;2022-08-03T06:14:52;9.05;;;3.03;;
21022;SDS011;10669;51.076;3.714;2022-08-03T06:17:18;10.32;;;2.85;;
21022;SDS011;10669;51.076;3.714;2022-08-03T06:19:44;11.43;;;3.05;;
21022;SDS011;10669;51.076;3.714;2022-08-03T06:22:11;10.63;;;2.88;;
21022;SDS011;10669;51.076;3.714;2022-08-03T06:24:38;9.30;;;2.72;;
21022;SDS011;10669;51.076;3.714;2022-08-03T06:27:04;10.68;;;2.70;;
21022;SDS011;10669;51.076;3.714;2022-08-03T06:29:31;17.30;;;3.80;;
21022;SDS011;10669;51.076;3.714;2022-08-03T06:31:56;13.35;;;2.30;;
21022;SDS011;10669;51.076;3.714;2022-08-03T06:34:22;12.63;;;4.15;;
21022;SDS011;10669;51.076;3.714;2022-08-03T06:36:50;10.13;;;2.70;;
21022;SDS011;10669;51.076;3.714;2022-08-03T06:39:17;8.70;;;2.95;;
21022;SDS011;10669;51.076;3.714;2022-08-03T06:41:42;12.40;;;2.90;;
21022;SDS011;10669;51.076;3.714;2022-08-03T06:44:10;10.13;;;3.13;;
21022;SDS011;10669;51.076;3.714;2022-08-03T06:46:36;16.17;;;2.70;;
21022;SDS011;10669;51.076;3.714;2022-08-03T06:49:01;7.82;;;2.70;;
21022;SDS011;10669;51.076;3.714;2022-08-03T06:51:28;11.75;;;2.50;;
21022;SDS011;10669;51.076;3.714;2022-08-03T06:53:55;10.98;;;3.13;;
21022;SDS011;10669;51.076;3.714;2022-08-03T06:56:21;13.05;;;2.67;;
21022;SDS011;10669;51.076;3.714;2022-08-03T06:58:49;10.93;;;2.70;;
21022;SDS011;10669;51.076;3.714;2022-08-03T07:01:17;9.98;;;2.75;;
21022;SDS011;10669;51.076;3.714;2022-08-03T07:03:44;14.68;;;2.80;;
21022;SDS011;10669;51.076;3.714;2022-08-03T07:06:10;15.00;;;3.42;;
21022;SDS011;10669;51.076;3.714;2022-08-03T07:08:35;14.82;;;2.60;;
21022;SDS011;10669;51.076;3.714;2022-08-03T07:11:01;13.63;;;2.95;;
21022;SDS011;10669;51.076;3.714;2022-08-03T07:13:27;13.52;;;2.97;;
21022;SDS011;10669;51.076;3.714;2022-08-03T07:15:52;16.80;;;3.35;;
21022;SDS011;10669;51.076;3.714;2022-08-03T07:18:18;12.18;;;2.70;;
21022;SDS011;10669;51.076;3.714;2022-08-03T07:20:44;15.23;;;2.20;;
21022;SDS011;10669;51.076;3.714;2022-08-03T07:23:10;11.93;;;2.70;;
21022;SDS011;10669;51.076;3.714;2022-08-03T07:25:37;15.02;;;2.90;;
21022;SDS011;10669;51.076;3.714;2022-08-03T07:28:03;13.75;;;3.03;;
21022;SDS011;10669;51.076;3.714;2022-08-03T07:30:29;10.77;;;2.67;;
21022;SDS011;10669;51.076;3.714;2022-08-03T07:32:55;10.82;;;3.15;;
21022;SDS011;10669;51.076;3.714;2022-08-03T07:35:20;12.63;;;2.58;;
21022;SDS011;10669;51.076;3.714;2022-08-03T07:37:50;17.80;;;2.85;;
21022;SDS011;10669;51.076;3.714;2022-08-03T07:40:16;17.08;;;3.22;;
21022;SDS011;10669;51.076;3.714;2022-08-03T07:42:42;12.80;;;2.67;;
21022;SDS011;10669;51.076;3.714;2022-08-03T07:45:08;13.75;;;3.13;;
21022;SDS011;10669;51.076;3.714;2022-08-03T07:50:04;12.35;;;2.78;;
21022;SDS011;10669;51.076;3.714;2022-08-03T07:52:32;16.10;;;3.50;;
21022;SDS011;10669;51.076;3.714;2022-08-03T07:55:15;14.55;;;3.30;;
21022;SDS011;10669;51.076;3.714;2022-08-03T07:57:42;13.02;;;3.20;;
21022;SDS011;10669;51.076;3.714;2022-08-03T08:00:15;14.80;;;2.95;;
21022;SDS011;10669;51.076;3.714;2022-08-03T08:02:43;11.82;;;2.97;;
21022;SDS011;10669;51.076;3.714;2022-08-03T08:05:11;17.33;;;3.53;;
21022;SDS011;10669;51.076;3.714;2022-08-03T08:07:39;13.80;;;3.72;;
21022;SDS011;10669;51.076;3.714;2022-08-03T08:10:06;13.40;;;2.53;;
21022;SDS011;10669;51.076;3.714;2022-08-03T08:12:35;14.68;;;3.20;;
21022;SDS011;10669;51.076;3.714;2022-08-03T08:15:02;10.27;;;2.42;;
21022;SDS011;10669;51.076;3.714;2022-08-03T08:17:29;14.05;;;2.53;;
21022;SDS011;10669;51.076;3.714;2022-08-03T08:19:55;14.63;;;2.83;;
21022;SDS011;10669;51.076;3.714;2022-08-03T08:22:22;8.77;;;2.58;;
21022;SDS011;10669;51.076;3.714;2022-08-03T08:24:48;13.93;;;3.13;;
21022;SDS011;10669;51.076;3.714;2022-08-03T08:27:14;10.55;;;2.63;;
21022;SDS011;10669;51.076;3.714;2022-08-03T08:29:41;13.48;;;3.22;;
21022;SDS011;10669;51.076;3.714;2022-08-03T08:32:08;12.27;;;2.83;;
21022;SDS011;10669;51.076;3.714;2022-08-03T08:34:36;23.35;;;3.03;;
21022;SDS011;10669;51.076;3.714;2022-08-03T08:37:02;13.65;;;3.00;;
21022;SDS011;10669;51.076;3.714;2022-08-03T08:39:29;8.75;;;2.38;;
21022;SDS011;10669;51.076;3.714;2022-08-03T08:41:55;12.35;;;2.80;;
21022;SDS011;10669;51.076;3.714;2022-08-03T08:44:21;14.65;;;3.42;;
21022;SDS011;10669;51.076;3.714;2022-08-03T08:46:47;10.48;;;2.50;;
21022;SDS011;10669;51.076;3.714;2022-08-03T08:49:15;17.55;;;3.28;;
21022;SDS011;10669;51.076;3.714;2022-08-03T08:51:43;14.77;;;3.20;;
21022;SDS011;10669;51.076;3.714;2022-08-03T08:54:14;11.82;;;2.30;;
21022;SDS011;10669;51.076;3.714;2022-08-03T08:56:47;14.93;;;2.70;;
21022;SDS011;10669;51.076;3.714;2022-08-03T08:59:16;13.32;;;2.47;;
21022;SDS011;10669;51.076;3.714;2022-08-03T09:01:43;12.73;;;2.75;;
21022;SDS011;10669;51.076;3.714;2022-08-03T09:04:09;14.93;;;2.80;;
21022;SDS011;10669;51.076;3.714;2022-08-03T09:06:36;16.00;;;3.10;;
21022;SDS011;10669;51.076;3.714;2022-08-03T09:09:04;15.07;;;2.65;;
21022;SDS011;10669;51.076;3.714;2022-08-03T09:11:31;9.60;;;2.50;;
21022;SDS011;10669;51.076;3.714;2022-08-03T09:13:57;15.15;;;3.38;;
21022;SDS011;10669;51.076;3.714;2022-08-03T09:16:23;8.82;;;2.70;;
21022;SDS011;10669;51.076;3.714;2022-08-03T09:18:49;16.27;;;3.15;;
21022;SDS011;10669;51.076;3.714;2022-08-03T09:21:26;18.90;;;3.05;;
21022;SDS011;10669;51.076;3.714;2022-08-03T09:23:56;18.25;;;3.35;;
21022;SDS011;10669;51.076;3.714;2022-08-03T09:26:27;13.80;;;2.88;;
21022;SDS011;10669;51.076;3.714;2022-08-03T09:28:55;12.55;;;3.60;;
21022;SDS011;10669;51.076;3.714;2022-08-03T09:31:30;11.85;;;3.00;;
21022;SDS011;10669;51.076;3.714;2022-08-03T09:33:59;15.10;;;2.88;;
21022;SDS011;10669;51.076;3.714;2022-08-03T09:36:33;10.35;;;2.53;;
21022;SDS011;10669;51.076;3.714;2022-08-03T09:39:03;14.85;;;2.88;;
21022;SDS011;10669;51.076;3.714;2022-08-03T09:41:34;10.73;;;1.92;;
21022;SDS011;10669;51.076;3.714;2022-08-03T09:44:01;12.10;;;2.75;;
21022;SDS011;10669;51.076;3.714;2022-08-03T09:46:27;12.55;;;3.13;;
21022;SDS011;10669;51.076;3.714;2022-08-03T09:49:08;12.85;;;2.85;;
21022;SDS011;10669;51.076;3.714;2022-08-03T09:51:36;8.48;;;2.40;;
21022;SDS011;10669;51.076;3.714;2022-08-03T09:54:03;12.85;;;2.67;;
21022;SDS011;10669;51.076;3.714;2022-08-03T09:56:45;8.93;;;2.50;;
21022;SDS011;10669;51.076;3.714;2022-08-03T09:59:22;9.25;;;2.05;;
21022;SDS011;10669;51.076;3.714;2022-08-03T10:01:52;11.05;;;2.35;;
21022;SDS011;10669;51.076;3.714;2022-08-03T10:10:01;25.42;;;3.40;;
21022;SDS011;10669;51.076;3.714;2022-08-03T10:12:28;13.90;;;2.42;;
21022;SDS011;10669;51.076;3.714;2022-08-03T10:14:54;44.92;;;4.32;;
21022;SDS011;10669;51.076;3.714;2022-08-03T10:17:20;10.45;;;2.55;;
21022;SDS011;10669;51.076;3.714;2022-08-03T10:19:47;16.15;;;2.00;;
21022;SDS011;10669;51.076;3.714;2022-08-03T10:22:14;7.57;;;1.88;;
21022;SDS011;10669;51.076;3.714;2022-08-03T10:24:55;10.63;;;2.30;;
21022;SDS011;10669;51.076;3.714;2022-08-03T10:27:26;8.65;;;2.08;;
21022;SDS011;10669;51.076;3.714;2022-08-03T10:29:58;8.75;;;2.20;;
21022;SDS011;10669;51.076;3.714;2022-08-03T10:32:33;10.02;;;2.03;;
21022;SDS011;10669;51.076;3.714;2022-08-03T10:35:06;9.52;;;3.38;;
21022;SDS011;10669;51.076;3.714;2022-08-03T10:37:36;9.75;;;2.20;;
21022;SDS011;10669;51.076;3.714;2022-08-03T10:40:08;11.10;;;2.63;;
21022;SDS011;10669;51.076;3.714;2022-08-03T10:45:11;6.90;;;1.67;;
21022;SDS011;10669;51.076;3.714;2022-08-03T10:47:45;9.63;;;1.70;;
21022;SDS011;10669;51.076;3.714;2022-08-03T10:50:14;11.02;;;2.00;;
21022;SDS011;10669;51.076;3.714;2022-08-03T10:52:57;15.63;;;2.92;;
21022;SDS011;10669;51.076;3.714;2022-08-03T10:55:36;5.70;;;1.80;;
21022;SDS011;10669;51.076;3.714;2022-08-03T11:01:09;6.70;;;1.90;;
21022;SDS011;10669;51.076;3.714;2022-08-03T11:06:18;12.30;;;2.15;;
21022;SDS011;10669;51.076;3.714;2022-08-03T11:08:47;8.05;;;1.83;;
21022;SDS011;10669;51.076;3.714;2022-08-03T11:11:33;8.95;;;1.80;;
21022;SDS011;10669;51.076;3.714;2022-08-03T11:14:00;9.52;;;2.00;;
21022;SDS011;10669;51.076;3.714;2022-08-03T11:16:34;9.73;;;1.85;;
21022;SDS011;10669;51.076;3.714;2022-08-03T11:19:05;7.30;;;1.58;;
21022;SDS011;10669;51.076;3.714;2022-08-03T11:35:13;8.52;;;1.95;;
21022;SDS011;10669;51.076;3.714;2022-08-03T11:45:57;9.68;;;1.45;;
21022;SDS011;10669;51.076;3.714;2022-08-03T11:48:26;6.15;;;1.50;;
21022;SDS011;10669;51.076;3.714;2022-08-03T11:51:04;12.55;;;1.85;;
21022;SDS011;10669;51.076;3.714;2022-08-03T11:53:32;9.57;;;2.03;;
21022;SDS011;10669;51.076;3.714;2022-08-03T11:55:59;6.63;;;1.83;;
21022;SDS011;10669;51.076;3.714;2022-08-03T11:58:26;8.82;;;2.03;;
21022;SDS011;10669;51.076;3.714;2022-08-03T12:01:02;6.07;;;1.55;;
21022;SDS011;10669;51.076;3.714;2022-08-03T12:03:31;11.82;;;2.00;;
21022;SDS011;10669;51.076;3.714;2022-08-03T12:05:57;9.90;;;1.60;;
21022;SDS011;10669;51.076;3.714;2022-08-03T12:10:51;5.57;;;1.67;;
21022;SDS011;10669;51.076;3.714;2022-08-03T12:13:18;6.57;;;2.20;;
21022;SDS011;10669;51.076;3.714;2022-08-03T12:15:49;12.40;;;1.90;;
21022;SDS011;10669;51.076;3.714;2022-08-03T12:18:16;7.60;;;1.65;;
21022;SDS011;10669;51.076;3.714;2022-08-03T12:20:44;15.27;;;1.90;;
21022;SDS011;10669;51.076;3.714;2022-08-03T12:23:12;12.23;;;1.88;;
21022;SDS011;10669;51.076;3.714;2022-08-03T12:25:39;6.13;;;1.65;;
21022;SDS011;10669;51.076;3.714;2022-08-03T12:28:19;7.70;;;1.92;;
21022;SDS011;10669;51.076;3.714;2022-08-03T12:30:48;10.20;;;1.83;;
21022;SDS011;10669;51.076;3.714;2022-08-03T12:33:22;9.50;;;2.20;;
21022;SDS011;10669;51.076;3.714;2022-08-03T12:38:31;8.80;;;1.90;;
21022;SDS011;10669;51.076;3.714;2022-08-03T12:40:59;3.80;;;1.75;;
21022;SDS011;10669;51.076;3.714;2022-08-03T12:43:33;12.45;;;1.88;;
21022;SDS011;10669;51.076;3.714;2022-08-03T12:46:09;6.50;;;1.20;;
21022;SDS011;10669;51.076;3.714;2022-08-03T12:48:36;4.53;;;1.50;;
21022;SDS011;10669;51.076;3.714;2022-08-03T12:51:20;6.38;;;1.48;;
21022;SDS011;10669;51.076;3.714;2022-08-03T12:53:50;3.78;;;1.20;;
21022;SDS011;10669;51.076;3.714;2022-08-03T12:56:18;5.88;;;1.67;;
21022;SDS011;10669;51.076;3.714;2022-08-03T12:58:45;6.72;;;1.65;;
21022;SDS011;10669;51.076;3.714;2022-08-03T13:01:12;10.95;;;1.67;;
21022;SDS011;10669;51.076;3.714;2022-08-03T13:03:42;6.55;;;1.50;;
21022;SDS011;10669;51.076;3.714;2022-08-03T13:06:12;8.65;;;1.70;;
21022;SDS011;10669;51.076;3.714;2022-08-03T13:08:40;8.13;;;3.30;;
21022;SDS011;10669;51.076;3.714;2022-08-03T13:11:17;7.75;;;2.25;;
21022;SDS011;10669;51.076;3.714;2022-08-03T13:13:43;17.23;;;1.95;;
21022;SDS011;10669;51.076;3.714;2022-08-03T13:16:10;13.40;;;2.30;;
21022;SDS011;10669;51.076;3.714;2022-08-03T13:18:35;6.65;;;1.55;;
21022;SDS011;10669;51.076;3.714;2022-08-03T13:21:01;4.10;;;1.23;;
21022;SDS011;10669;51.076;3.714;2022-08-03T13:23:27;10.38;;;1.50;;
21022;SDS011;10669;51.076;3.714;2022-08-03T13:25:54;4.10;;;1.60;;
21022;SDS011;10669;51.076;3.714;2022-08-03T13:28:19;7.13;;;1.40;;
21022;SDS011;10669;51.076;3.714;2022-08-03T13:30:45;7.65;;;1.77;;
21022;SDS011;10669;51.076;3.714;2022-08-03T13:33:11;5.45;;;1.38;;
21022;SDS011;10669;51.076;3.714;2022-08-03T13:35:37;8.18;;;1.35;;
21022;SDS011;10669;51.076;3.714;2022-08-03T13:38:04;3.30;;;1.25;;
21022;SDS011;10669;51.076;3.714;2022-08-03T13:40:29;2.97;;;1.63;;
21022;SDS011;10669;51.076;3.714;2022-08-03T13:42:56;8.43;;;1.20;;
21022;SDS011;10669;51.076;3.714;2022-08-03T13:45:22;5.00;;;1.42;;
21022;SDS011;10669;51.076;3.714;2022-08-03T13:47:48;7.53;;;1.65;;
21022;SDS011;10669;51.076;3.714;2022-08-03T13:50:14;4.22;;;1.33;;
21022;SDS011;10669;51.076;3.714;2022-08-03T13:52:40;6.10;;;1.50;;
21022;SDS011;10669;51.076;3.714;2022-08-03T13:55:06;3.97;;;1.50;;
21022;SDS011;10669;51.076;3.714;2022-08-03T13:57:33;7.70;;;1.40;;
21022;SDS011;10669;51.076;3.714;2022-08-03T13:59:59;8.43;;;1.48;;
21022;SDS011;10669;51.076;3.714;2022-08-03T14:02:26;5.85;;;1.52;;
21022;SDS011;10669;51.076;3.714;2022-08-03T14:04:52;5.95;;;1.92;;
21022;SDS011;10669;51.076;3.714;2022-08-03T14:07:18;8.18;;;1.20;;
21022;SDS011;10669;51.076;3.714;2022-08-03T14:09:44;5.47;;;1.40;;
21022;SDS011;10669;51.076;3.714;2022-08-03T14:12:09;9.10;;;2.00;;
21022;SDS011;10669;51.076;3.714;2022-08-03T14:14:35;2.63;;;1.35;;
21022;SDS011;10669;51.076;3.714;2022-08-03T14:17:01;4.53;;;1.15;;
21022;SDS011;10669;51.076;3.714;2022-08-03T14:19:26;6.03;;;1.30;;
21022;SDS011;10669;51.076;3.714;2022-08-03T14:21:52;5.00;;;1.50;;
21022;SDS011;10669;51.076;3.714;2022-08-03T14:24:18;9.95;;;1.33;;
21022;SDS011;10669;51.076;3.714;2022-08-03T14:26:44;5.78;;;1.38;;
21022;SDS011;10669;51.076;3.714;2022-08-03T14:29:10;4.68;;;1.77;;
21022;SDS011;10669;51.076;3.714;2022-08-03T14:31:36;5.28;;;1.50;;
21022;SDS011;10669;51.076;3.714;2022-08-03T14:34:02;3.83;;;1.25;;
21022;SDS011;10669;51.076;3.714;2022-08-03T14:36:28;7.63;;;1.42;;
21022;SDS011;10669;51.076;3.714;2022-08-03T14:38:54;2.95;;;1.25;;
21022;SDS011;10669;51.076;3.714;2022-08-03T14:41:20;8.98;;;1.00;;
21022;SDS011;10669;51.076;3.714;2022-08-03T14:43:46;6.45;;;1.83;;
21022;SDS011;10669;51.076;3.714;2022-08-03T14:46:13;3.35;;;1.25;;
21022;SDS011;10669;51.076;3.714;2022-08-03T14:48:38;2.88;;;1.27;;
21022;SDS011;10669;51.076;3.714;2022-08-03T14:51:06;9.98;;;2.10;;
21022;SDS011;10669;51.076;3.714;2022-08-03T14:53:33;3.70;;;1.15;;
21022;SDS011;10669;51.076;3.714;2022-08-03T14:56:00;5.57;;;1.40;;
21022;SDS011;10669;51.076;3.714;2022-08-03T14:58:26;7.78;;;1.00;;
21022;SDS011;10669;51.076;3.714;2022-08-03T15:00:52;8.32;;;1.67;;
21022;SDS011;10669;51.076;3.714;2022-08-03T15:03:19;3.15;;;1.30;;
21022;SDS011;10669;51.076;3.714;2022-08-03T15:05:54;4.07;;;1.25;;
21022;SDS011;10669;51.076;3.714;2022-08-03T15:08:21;2.75;;;1.10;;
21022;SDS011;10669;51.076;3.714;2022-08-03T15:10:48;5.75;;;1.00;;
21022;SDS011;10669;51.076;3.714;2022-08-03T15:13:16;4.13;;;0.95;;
21022;SDS011;10669;51.076;3.714;2022-08-03T15:15:45;3.30;;;1.40;;
21022;SDS011;10669;51.076;3.714;2022-08-03T15:18:11;2.53;;;1.13;;
21022;SDS011;10669;51.076;3.714;2022-08-03T15:20:37;4.97;;;1.30;;
21022;SDS011;10669;51.076;3.714;2022-08-03T15:23:03;4.97;;;0.90;;
21022;SDS011;10669;51.076;3.714;2022-08-03T15:25:29;9.95;;;1.52;;
21022;SDS011;10669;51.076;3.714;2022-08-03T15:27:54;4.47;;;1.20;;
21022;SDS011;10669;51.076;3.714;2022-08-03T15:30:21;14.35;;;2.17;;
21022;SDS011;10669;51.076;3.714;2022-08-03T15:32:49;5.55;;;0.93;;
21022;SDS011;10669;51.076;3.714;2022-08-03T15:35:14;8.63;;;1.02;;
21022;SDS011;10669;51.076;3.714;2022-08-03T15:37:40;5.07;;;1.10;;
21022;SDS011;10669;51.076;3.714;2022-08-03T15:40:06;3.58;;;1.17;;
21022;SDS011;10669;51.076;3.714;2022-08-03T15:42:32;6.57;;;1.13;;
21022;SDS011;10669;51.076;3.714;2022-08-03T15:44:59;3.88;;;1.45;;
21022;SDS011;10669;51.076;3.714;2022-08-03T15:47:25;6.88;;;1.48;;
21022;SDS011;10669;51.076;3.714;2022-08-03T15:49:51;3.08;;;1.10;;
21022;SDS011;10669;51.076;3.714;2022-08-03T15:52:19;3.33;;;1.13;;
21022;SDS011;10669;51.076;3.714;2022-08-03T15:54:45;3.72;;;1.10;;
21022;SDS011;10669;51.076;3.714;2022-08-03T15:57:11;3.50;;;1.00;;
21022;SDS011;10669;51.076;3.714;2022-08-03T15:59:37;5.55;;;1.08;;